createdAt,value
2019-03-29T00:01:06.841Z,57.67
2019-03-29T00:03:35.030Z,57.58
2019-03-29T00:06:03.034Z,57.35
2019-03-29T00:08:30.860Z,57.25
2019-03-29T00:10:58.650Z,57.27
2019-03-29T00:13:26.398Z,57.28
2019-03-29T00:15:54.175Z,57.43
2019-03-29T00:18:21.925Z,57.61
2019-03-29T00:20:49.692Z,58.27
2019-03-29T00:23:17.434Z,58.80
2019-03-29T00:25:45.222Z,58.78
2019-03-29T00:28:12.985Z,57.16
2019-03-29T00:30:43.411Z,56.81
2019-03-29T00:33:11.276Z,57.70
2019-03-29T00:35:40.737Z,57.60
2019-03-29T00:38:08.682Z,57.51
2019-03-29T00:40:56.756Z,57.69
2019-03-29T00:43:24.669Z,57.71
2019-03-29T00:45:52.778Z,57.53
2019-03-29T00:48:21.230Z,57.60
2019-03-29T00:50:49.785Z,57.54
2019-03-29T00:53:17.699Z,57.47
2019-03-29T00:55:46.895Z,57.53
2019-03-29T00:58:15.028Z,57.33
2019-03-29T01:00:42.901Z,58.05
2019-03-29T01:03:11.047Z,57.83
2019-03-29T01:05:39.114Z,57.33
2019-03-29T01:08:10.043Z,57.14
2019-03-29T01:10:36.952Z,56.92
2019-03-29T01:13:04.729Z,56.87
2019-03-29T01:15:32.593Z,57.00
2019-03-29T01:18:00.417Z,56.86
2019-03-29T01:20:28.254Z,56.44
2019-03-29T01:22:56.031Z,56.58
2019-03-29T01:25:23.940Z,56.68
2019-03-29T01:27:51.867Z,56.48
2019-03-29T01:30:19.756Z,56.29
2019-03-29T01:32:47.559Z,56.54
2019-03-29T01:35:15.456Z,56.59
2019-03-29T01:37:43.316Z,56.67
2019-03-29T01:40:11.144Z,56.74
2019-03-29T01:42:39.029Z,56.59
2019-03-29T01:45:07.224Z,56.35
2019-03-29T01:47:34.972Z,56.34
2019-03-29T01:50:03.875Z,56.24
2019-03-29T01:52:31.714Z,56.18
2019-03-29T01:54:59.444Z,56.39
2019-03-29T01:57:27.291Z,56.24
2019-03-29T01:59:55.028Z,56.27
2019-03-29T02:02:22.747Z,56.40
2019-03-29T02:04:50.601Z,56.47
2019-03-29T02:07:18.353Z,56.74
2019-03-29T02:09:46.159Z,56.99
2019-03-29T02:12:13.884Z,57.38
2019-03-29T02:14:41.643Z,57.78
2019-03-29T02:17:09.398Z,57.68
2019-03-29T02:19:37.126Z,57.45
2019-03-29T02:22:04.865Z,57.52
2019-03-29T02:24:32.639Z,57.48
2019-03-29T02:27:00.989Z,57.63
2019-03-29T02:29:28.951Z,57.69
2019-03-29T02:31:57.137Z,57.58
2019-03-29T02:34:25.104Z,57.84
2019-03-29T02:36:52.860Z,57.82
2019-03-29T02:39:20.633Z,57.73
2019-03-29T02:41:48.408Z,57.73
2019-03-29T02:44:16.148Z,57.67
2019-03-29T02:46:43.929Z,57.78
2019-03-29T02:49:12.807Z,57.81
2019-03-29T02:51:41.446Z,57.94
2019-03-29T02:54:09.296Z,57.86
2019-03-29T02:56:37.046Z,57.97
2019-03-29T02:59:04.783Z,58.03
2019-03-29T03:01:32.586Z,58.12
2019-03-29T03:04:00.328Z,58.26
2019-03-29T03:06:28.241Z,58.18
2019-03-29T03:09:12.436Z,58.10
2019-03-29T03:11:25.844Z,58.15
2019-03-29T03:13:53.655Z,57.94
2019-03-29T03:16:21.433Z,57.97
2019-03-29T03:18:49.213Z,57.76
2019-03-29T03:21:16.978Z,57.69
2019-03-29T03:23:44.775Z,57.61
2019-03-29T03:26:12.577Z,57.74
2019-03-29T03:28:40.300Z,57.79
2019-03-29T03:31:08.042Z,57.69
2019-03-29T03:33:35.855Z,57.62
2019-03-29T03:36:03.611Z,57.50
2019-03-29T03:38:31.337Z,57.55
2019-03-29T03:40:59.117Z,57.58
2019-03-29T03:43:26.894Z,57.76
2019-03-29T03:45:54.641Z,57.56
2019-03-29T03:48:22.393Z,57.50
2019-03-29T03:50:50.134Z,57.40
2019-03-29T03:53:17.874Z,57.04
2019-03-29T03:55:45.622Z,57.23
2019-03-29T03:58:13.378Z,57.09
2019-03-29T04:00:51.273Z,57.21
2019-03-29T04:03:19.105Z,57.38
2019-03-29T04:05:46.886Z,57.54
2019-03-29T04:08:14.624Z,57.01
2019-03-29T04:10:42.486Z,57.35
2019-03-29T04:13:10.182Z,57.20
2019-03-29T04:15:37.960Z,57.36
2019-03-29T04:18:05.685Z,57.26
2019-03-29T04:20:33.402Z,57.02
2019-03-29T04:23:01.168Z,57.08
2019-03-29T04:25:28.910Z,56.96
2019-03-29T04:27:56.689Z,56.77
2019-03-29T04:30:24.439Z,56.91
2019-03-29T04:32:52.256Z,56.79
2019-03-29T04:35:20.074Z,56.82
2019-03-29T04:37:47.997Z,57.02
2019-03-29T04:40:15.750Z,56.82
2019-03-29T04:42:43.461Z,57.04
2019-03-29T04:45:11.275Z,57.67
2019-03-29T04:47:39.091Z,58.05
2019-03-29T04:50:06.915Z,57.71
2019-03-29T04:52:34.798Z,57.05
2019-03-29T04:55:02.696Z,57.49
2019-03-29T04:57:30.454Z,57.82
2019-03-29T04:59:58.255Z,57.58
2019-03-29T05:02:26.194Z,57.62
2019-03-29T05:04:54.468Z,57.47
2019-03-29T05:07:23.087Z,57.44
2019-03-29T05:09:50.907Z,57.56
2019-03-29T05:12:18.681Z,57.67
2019-03-29T05:14:46.538Z,57.60
2019-03-29T05:17:14.301Z,57.55
2019-03-29T05:19:44.562Z,57.44
2019-03-29T05:22:11.705Z,57.79
2019-03-29T05:24:39.490Z,57.68
2019-03-29T05:27:07.241Z,57.56
2019-03-29T05:29:35.015Z,57.33
2019-03-29T05:32:02.789Z,57.30
2019-03-29T05:34:35.445Z,57.40
2019-03-29T05:37:26.625Z,57.41
2019-03-29T05:39:54.494Z,57.28
2019-03-29T05:42:29.304Z,57.35
2019-03-29T05:44:59.656Z,57.28
2019-03-29T05:47:30.007Z,56.75
2019-03-29T05:50:03.978Z,55.82
2019-03-29T05:52:34.339Z,55.02
2019-03-29T05:55:04.309Z,54.42
2019-03-29T05:57:33.241Z,53.97
2019-03-29T06:00:00.951Z,53.61
2019-03-29T06:02:29.202Z,53.30
2019-03-29T06:04:59.073Z,53.27
2019-03-29T06:07:26.922Z,53.38
2019-03-29T06:09:54.770Z,53.26
2019-03-29T06:12:22.540Z,53.19
2019-03-29T06:14:50.273Z,53.34
2019-03-29T06:17:18.051Z,53.52
2019-03-29T06:19:45.792Z,53.67
2019-03-29T06:22:13.582Z,53.77
2019-03-29T06:24:41.383Z,53.75
2019-03-29T06:27:09.112Z,53.75
2019-03-29T06:29:38.710Z,53.66
2019-03-29T06:32:12.377Z,53.59
2019-03-29T06:34:45.675Z,53.88
2019-03-29T06:37:16.420Z,54.47
2019-03-29T06:39:45.121Z,54.52
2019-03-29T06:42:16.545Z,54.42
2019-03-29T06:44:44.593Z,54.45
2019-03-29T06:47:18.291Z,54.55
2019-03-29T06:49:47.310Z,54.32
2019-03-29T06:52:15.688Z,54.54
2019-03-29T06:54:43.615Z,54.70
2019-03-29T06:57:12.095Z,54.76
2019-03-29T06:59:40.285Z,54.69
2019-03-29T07:02:08.547Z,54.67
2019-03-29T07:04:36.507Z,54.68
2019-03-29T07:07:04.299Z,54.58
2019-03-29T07:09:32.158Z,54.58
2019-03-29T07:11:59.986Z,54.79
2019-03-29T07:14:27.769Z,55.49
2019-03-29T07:16:55.487Z,54.68
2019-03-29T07:19:23.264Z,53.94
2019-03-29T07:21:51.012Z,53.79
2019-03-29T07:24:18.901Z,53.51
2019-03-29T07:26:46.672Z,53.36
2019-03-29T07:29:14.427Z,53.29
2019-03-29T07:31:42.207Z,53.18
2019-03-29T07:34:10.050Z,53.10
2019-03-29T07:36:37.831Z,52.95
2019-03-29T07:39:06.298Z,52.84
2019-03-29T07:41:34.027Z,52.78
2019-03-29T07:44:01.807Z,52.65
2019-03-29T07:46:29.611Z,52.53
2019-03-29T07:48:57.458Z,52.35
2019-03-29T07:51:25.206Z,52.20
2019-03-29T07:53:53.001Z,52.04
2019-03-29T07:56:20.723Z,51.92
2019-03-29T07:58:48.522Z,51.87
2019-03-29T08:01:16.496Z,51.79
2019-03-29T08:03:44.373Z,51.68
2019-03-29T08:06:12.384Z,51.64
2019-03-29T08:08:40.224Z,51.56
2019-03-29T08:11:08.132Z,51.50
2019-03-29T08:13:35.942Z,51.40
2019-03-29T08:16:06.597Z,51.38
2019-03-29T08:18:33.536Z,51.22
2019-03-29T08:21:01.307Z,51.19
2019-03-29T08:23:29.063Z,51.04
2019-03-29T08:25:56.995Z,51.05
2019-03-29T08:28:24.779Z,50.94
2019-03-29T08:30:52.464Z,50.82
2019-03-29T08:33:20.214Z,50.84
2019-03-29T08:35:48.023Z,50.77
2019-03-29T08:38:15.751Z,50.72
2019-03-29T08:40:45.261Z,50.65
2019-03-29T08:43:13.369Z,50.54
2019-03-29T08:45:41.083Z,50.47
2019-03-29T08:48:08.864Z,50.42
2019-03-29T08:50:37.011Z,50.22
2019-03-29T08:53:04.701Z,50.19
2019-03-29T08:55:45.221Z,49.95
2019-03-29T08:58:02.094Z,49.75
2019-03-29T09:00:30.255Z,49.71
2019-03-29T09:02:58.092Z,49.86
2019-03-29T09:05:25.826Z,49.79
2019-03-29T09:07:53.653Z,49.76
2019-03-29T09:10:23.342Z,49.74
2019-03-29T09:12:51.191Z,49.69
2019-03-29T09:15:18.953Z,49.55
2019-03-29T09:17:46.783Z,49.57
2019-03-29T09:20:14.572Z,49.52
2019-03-29T09:22:42.402Z,49.51
2019-03-29T09:25:10.201Z,49.42
2019-03-29T09:27:38.101Z,49.37
2019-03-29T09:30:05.930Z,49.15
2019-03-29T09:32:34.018Z,49.17
2019-03-29T09:35:02.220Z,49.08
2019-03-29T09:37:33.479Z,48.89
2019-03-29T09:40:01.328Z,48.88
2019-03-29T09:42:30.310Z,48.82
2019-03-29T09:44:58.454Z,48.94
2019-03-29T09:47:27.633Z,48.98
2019-03-29T09:49:55.622Z,48.78
2019-03-29T09:52:23.444Z,48.72
2019-03-29T09:54:54.066Z,48.62
2019-03-29T09:57:21.103Z,48.39
2019-03-29T09:59:48.933Z,48.46
2019-03-29T10:02:16.854Z,48.26
2019-03-29T10:04:44.672Z,48.22
2019-03-29T10:07:12.514Z,48.18
2019-03-29T10:09:40.543Z,48.23
2019-03-29T10:12:08.405Z,48.13
2019-03-29T10:14:36.209Z,48.09
2019-03-29T10:17:04.058Z,48.16
2019-03-29T10:19:31.934Z,48.31
2019-03-29T10:21:59.731Z,48.16
2019-03-29T10:24:27.586Z,48.16
2019-03-29T10:26:56.428Z,48.05
2019-03-29T10:29:24.394Z,47.91
2019-03-29T10:31:52.228Z,47.89
2019-03-29T10:34:20.086Z,47.82
2019-03-29T10:36:47.895Z,47.82
2019-03-29T10:39:15.764Z,47.84
2019-03-29T10:41:43.555Z,47.76
2019-03-29T10:44:11.574Z,47.73
2019-03-29T10:46:39.456Z,47.76
2019-03-29T10:49:07.456Z,47.73
2019-03-29T10:51:35.328Z,47.71
2019-03-29T10:54:03.120Z,47.63
2019-03-29T10:56:34.474Z,47.50
2019-03-29T10:59:00.679Z,47.44
2019-03-29T11:01:28.627Z,47.44
2019-03-29T11:03:56.488Z,47.44
2019-03-29T11:06:24.465Z,47.41
2019-03-29T11:08:59.418Z,47.37
2019-03-29T11:11:27.233Z,47.38
2019-03-29T11:13:56.617Z,47.34
2019-03-29T11:16:25.002Z,47.29
2019-03-29T11:18:53.146Z,47.21
2019-03-29T11:21:21.116Z,47.13
2019-03-29T11:23:49.231Z,47.06
2019-03-29T11:26:17.282Z,46.89
2019-03-29T11:28:45.352Z,46.69
2019-03-29T11:31:13.423Z,46.72
2019-03-29T11:33:41.377Z,46.59
2019-03-29T11:36:09.405Z,46.46
2019-03-29T11:38:37.487Z,46.54
2019-03-29T11:41:05.453Z,46.50
2019-03-29T11:43:33.448Z,46.38
2019-03-29T11:46:01.795Z,46.40
2019-03-29T11:48:29.854Z,46.21
2019-03-29T11:50:57.799Z,46.25
2019-03-29T11:53:25.855Z,46.14
2019-03-29T11:55:53.808Z,46.10
2019-03-29T11:58:21.798Z,46.13
2019-03-29T12:00:49.872Z,46.19
2019-03-29T12:03:17.899Z,45.98
2019-03-29T12:05:45.723Z,45.97
2019-03-29T12:08:13.557Z,46.04
2019-03-29T12:10:41.479Z,46.12
2019-03-29T12:13:09.314Z,46.20
2019-03-29T12:15:37.384Z,46.30
2019-03-29T12:18:05.223Z,46.39
2019-03-29T12:20:33.027Z,46.35
2019-03-29T12:23:00.864Z,46.37
2019-03-29T12:25:28.800Z,46.42
2019-03-29T12:27:58.344Z,46.35
2019-03-29T12:30:31.750Z,46.28
2019-03-29T12:32:55.806Z,46.28
2019-03-29T12:35:23.638Z,46.19
2019-03-29T12:37:51.430Z,46.09
2019-03-29T12:40:19.305Z,45.96
2019-03-29T12:42:47.159Z,45.91
2019-03-29T12:45:15.056Z,45.89
2019-03-29T12:47:42.867Z,45.86
2019-03-29T12:50:10.939Z,45.75
2019-03-29T12:52:39.143Z,45.76
2019-03-29T12:55:07.005Z,45.59
2019-03-29T12:57:34.797Z,45.54
2019-03-29T13:00:02.699Z,45.49
2019-03-29T13:02:34.579Z,45.44
2019-03-29T13:05:01.874Z,45.43
2019-03-29T13:07:29.675Z,45.39
2019-03-29T13:09:57.490Z,45.65
2019-03-29T13:12:25.340Z,45.72
2019-03-29T13:14:53.159Z,45.95
2019-03-29T13:17:21.098Z,45.90
2019-03-29T13:19:48.900Z,45.81
2019-03-29T13:22:16.995Z,45.86
2019-03-29T13:24:45.135Z,45.81
2019-03-29T13:27:12.970Z,45.69
2019-03-29T13:29:40.809Z,45.67
2019-03-29T13:32:08.606Z,45.55
2019-03-29T13:34:36.412Z,45.51
2019-03-29T13:37:04.193Z,45.51
2019-03-29T13:39:31.972Z,45.46
2019-03-29T13:41:59.892Z,45.17
2019-03-29T13:44:28.418Z,45.01
2019-03-29T13:46:56.313Z,45.20
2019-03-29T13:49:24.170Z,44.81
2019-03-29T13:51:51.952Z,44.76
2019-03-29T13:54:19.723Z,44.92
2019-03-29T13:56:47.594Z,44.75
2019-03-29T13:59:15.374Z,44.68
2019-03-29T14:01:43.179Z,44.85
2019-03-29T14:04:10.999Z,45.02
2019-03-29T14:06:38.792Z,45.12
2019-03-29T14:09:06.734Z,45.16
2019-03-29T14:11:34.527Z,45.04
2019-03-29T14:14:02.378Z,45.00
2019-03-29T14:16:30.164Z,44.87
2019-03-29T14:18:57.980Z,44.93
2019-03-29T14:21:25.767Z,44.76
2019-03-29T14:23:53.594Z,44.79
2019-03-29T14:26:21.392Z,44.82
2019-03-29T14:28:49.196Z,44.56
2019-03-29T14:31:17.019Z,44.16
2019-03-29T14:33:44.802Z,43.66
2019-03-29T14:36:12.614Z,43.07
2019-03-29T14:38:40.398Z,43.17
2019-03-29T14:41:08.218Z,41.98
2019-03-29T14:43:36.006Z,41.05
2019-03-29T14:46:03.836Z,40.49
2019-03-29T14:48:31.698Z,40.36
2019-03-29T14:50:59.537Z,41.24
2019-03-29T14:53:27.334Z,41.75
2019-03-29T14:55:55.162Z,41.88
2019-03-29T14:58:22.998Z,41.75
2019-03-29T15:00:50.786Z,41.30
2019-03-29T15:03:18.607Z,40.86
2019-03-29T15:05:46.410Z,40.77
2019-03-29T15:08:14.230Z,40.65
2019-03-29T15:10:42.064Z,40.67
2019-03-29T15:13:09.888Z,40.75
2019-03-29T15:15:37.818Z,40.98
2019-03-29T15:18:05.723Z,41.23
2019-03-29T15:20:33.498Z,41.16
2019-03-29T15:23:01.326Z,41.09
2019-03-29T15:25:29.146Z,41.00
2019-03-29T15:27:57.057Z,40.94
2019-03-29T15:30:24.861Z,40.89
2019-03-29T15:32:52.705Z,40.85
2019-03-29T15:35:21.012Z,40.78
2019-03-29T15:37:48.926Z,40.79
2019-03-29T15:40:16.747Z,40.70
2019-03-29T15:42:44.582Z,40.72
2019-03-29T15:45:20.228Z,40.74
2019-03-29T15:47:42.362Z,40.72
2019-03-29T15:50:10.203Z,40.69
2019-03-29T15:52:37.991Z,40.84
2019-03-29T15:55:06.014Z,41.02
2019-03-29T15:57:33.807Z,41.28
2019-03-29T16:00:01.597Z,41.43
2019-03-29T16:02:29.522Z,41.44
2019-03-29T16:04:57.329Z,41.44
2019-03-29T16:07:25.128Z,41.48
2019-03-29T16:09:52.985Z,41.59
2019-03-29T16:12:20.778Z,41.67
2019-03-29T16:14:48.605Z,41.74
2019-03-29T16:17:16.443Z,41.81
2019-03-29T16:19:44.237Z,41.85
2019-03-29T16:22:12.095Z,41.97
2019-03-29T16:24:39.881Z,42.07
2019-03-29T16:27:07.677Z,42.19
2019-03-29T16:29:35.506Z,42.34
2019-03-29T16:32:03.333Z,42.52
2019-03-29T16:34:31.143Z,42.70
2019-03-29T16:36:58.961Z,42.80
2019-03-29T16:39:26.807Z,42.92
2019-03-29T16:41:54.624Z,43.05
2019-03-29T16:44:22.419Z,43.18
2019-03-29T16:46:50.210Z,43.40
2019-03-29T16:49:18.185Z,43.57
2019-03-29T16:51:45.978Z,43.78
2019-03-29T16:54:13.804Z,43.95
2019-03-29T16:56:41.616Z,44.14
2019-03-29T16:59:09.411Z,44.30
2019-03-29T17:01:37.211Z,44.50
2019-03-29T17:04:05.039Z,44.66
2019-03-29T17:06:32.950Z,44.82
2019-03-29T17:09:00.748Z,44.96
2019-03-29T17:11:28.536Z,45.10
2019-03-29T17:13:56.338Z,45.24
2019-03-29T17:16:30.385Z,45.41
2019-03-29T17:18:53.838Z,45.53
2019-03-29T17:21:21.625Z,45.73
2019-03-29T17:26:16.569Z,46.07
2019-03-29T17:28:44.354Z,46.28
2019-03-29T17:31:13.025Z,46.50
2019-03-29T17:33:40.819Z,46.75
2019-03-29T17:36:08.722Z,46.93
2019-03-29T17:38:36.498Z,47.14
2019-03-29T17:41:04.315Z,47.36
2019-03-29T17:43:32.128Z,47.56
2019-03-29T17:45:59.917Z,47.75
2019-03-29T17:48:27.736Z,47.93
2019-03-29T17:50:55.592Z,48.11
2019-03-29T17:53:23.441Z,48.33
2019-03-29T17:55:51.231Z,48.46
2019-03-29T17:58:19.015Z,48.65
2019-03-29T18:00:46.819Z,48.78
2019-03-29T18:03:14.744Z,48.95
2019-03-29T18:05:42.526Z,49.10
2019-03-29T18:08:10.312Z,49.24
2019-03-29T18:10:38.114Z,49.39
2019-03-29T18:13:05.919Z,49.49
2019-03-29T18:15:33.741Z,49.62
2019-03-29T18:18:01.566Z,49.75
2019-03-29T18:20:29.395Z,49.90
2019-03-29T18:22:57.224Z,49.98
2019-03-29T18:25:25.032Z,50.11
2019-03-29T18:27:52.811Z,50.22
2019-03-29T18:30:49.855Z,50.33
2019-03-29T18:33:17.639Z,50.43
2019-03-29T18:35:45.452Z,50.51
2019-03-29T18:38:13.231Z,50.63
2019-03-29T18:40:41.077Z,50.69
2019-03-29T18:43:08.873Z,50.81
2019-03-29T18:45:36.665Z,50.88
2019-03-29T18:48:04.477Z,50.96
2019-03-29T18:50:32.307Z,51.02
2019-03-29T18:53:00.088Z,51.07
2019-03-29T18:55:27.904Z,51.17
2019-03-29T18:57:55.686Z,51.22
2019-03-29T19:00:29.407Z,51.29
2019-03-29T19:02:57.197Z,51.31
2019-03-29T19:05:25.227Z,51.40
2019-03-29T19:07:53.027Z,51.45
2019-03-29T19:10:20.822Z,51.51
2019-03-29T19:12:48.645Z,51.53
2019-03-29T19:15:16.453Z,51.62
2019-03-29T19:17:44.260Z,51.68
2019-03-29T19:20:26.248Z,51.71
2019-03-29T19:22:41.809Z,51.74
2019-03-29T19:25:09.607Z,51.82
2019-03-29T19:27:37.386Z,51.86
2019-03-29T19:30:05.565Z,51.88
2019-03-29T19:32:33.388Z,51.91
2019-03-29T19:35:01.177Z,51.93
2019-03-29T19:37:29.114Z,51.96
2019-03-29T19:39:56.899Z,52.01
2019-03-29T19:42:24.745Z,52.07
2019-03-29T19:44:52.590Z,52.12
2019-03-29T19:47:20.406Z,52.14
2019-03-29T19:49:48.289Z,52.18
2019-03-29T19:52:16.071Z,52.26
2019-03-29T19:54:43.865Z,52.27
2019-03-29T19:57:11.679Z,52.34
2019-03-29T19:59:39.480Z,52.35
2019-03-29T20:02:07.309Z,52.40
2019-03-29T20:04:35.183Z,52.43
2019-03-29T20:07:03.465Z,52.43
2019-03-29T20:09:31.276Z,52.45
2019-03-29T20:11:59.070Z,52.51
2019-03-29T20:14:26.884Z,52.50
2019-03-29T20:16:55.375Z,52.53
2019-03-29T20:19:23.218Z,52.59
2019-03-29T20:21:51.026Z,52.64
2019-03-29T20:24:18.805Z,52.66
2019-03-29T20:26:46.724Z,52.68
2019-03-29T20:29:14.506Z,52.73
2019-03-29T20:31:42.271Z,52.76
2019-03-29T20:34:10.093Z,52.84
2019-03-29T20:36:37.882Z,52.87
2019-03-29T20:39:06.691Z,52.91
2019-03-29T20:41:34.466Z,53.02
2019-03-29T20:44:02.306Z,53.00
2019-03-29T20:46:30.098Z,53.03
2019-03-29T20:48:57.965Z,53.01
2019-03-29T20:51:25.786Z,53.08
2019-03-29T20:53:53.595Z,53.19
2019-03-29T20:56:21.418Z,53.17
2019-03-29T20:58:49.209Z,53.18
2019-03-29T21:01:17.023Z,53.16
2019-03-29T21:03:44.833Z,53.31
2019-03-29T21:06:12.653Z,53.32
2019-03-29T21:08:40.479Z,53.34
2019-03-29T21:11:08.407Z,53.39
2019-03-29T21:13:36.370Z,53.47
2019-03-29T21:16:04.218Z,53.58
2019-03-29T21:18:32.013Z,53.61
2019-03-29T21:20:59.796Z,53.57
2019-03-29T21:23:27.634Z,53.71
2019-03-29T21:25:55.422Z,53.80
2019-03-29T21:28:23.209Z,53.86
2019-03-29T21:30:51.019Z,53.95
2019-03-29T21:33:18.797Z,53.96
2019-03-29T21:35:46.654Z,54.06
2019-03-29T21:38:14.478Z,54.11
2019-03-29T21:40:42.270Z,54.15
2019-03-29T21:43:10.095Z,54.19
2019-03-29T21:45:37.901Z,54.21
2019-03-29T21:48:27.209Z,54.27
2019-03-29T21:50:35.444Z,54.30
2019-03-29T21:53:03.368Z,54.30
2019-03-29T21:55:31.151Z,54.31
2019-03-29T21:57:58.935Z,54.31
2019-03-29T22:00:26.746Z,54.31
2019-03-29T22:02:54.518Z,54.37
2019-03-29T22:05:22.354Z,54.40
2019-03-29T22:07:50.143Z,54.42
2019-03-29T22:10:18.059Z,54.43
2019-03-29T22:12:45.833Z,54.47
2019-03-29T22:15:13.625Z,54.50
2019-03-29T22:17:41.434Z,54.53
2019-03-29T22:20:09.302Z,54.56
2019-03-29T22:22:37.142Z,54.59
2019-03-29T22:25:05.457Z,54.66
2019-03-29T22:27:33.288Z,54.71
2019-03-29T22:30:01.194Z,54.66
2019-03-29T22:32:28.986Z,54.68
2019-03-29T22:34:56.761Z,54.70
2019-03-29T22:37:24.582Z,54.66
2019-03-29T22:39:52.382Z,54.73
2019-03-29T22:42:20.233Z,54.77
2019-03-29T22:44:48.020Z,54.77
2019-03-29T22:47:15.815Z,54.77
2019-03-29T22:49:43.672Z,54.76
2019-03-29T22:52:11.473Z,54.80
2019-03-29T22:54:39.273Z,54.85
2019-03-29T22:57:07.061Z,54.83
2019-03-29T22:59:34.893Z,54.86
2019-03-29T23:02:02.877Z,54.81
2019-03-29T23:04:30.659Z,54.86
2019-03-29T23:06:58.457Z,54.92
2019-03-29T23:09:26.236Z,54.92
2019-03-29T23:11:54.043Z,54.97
2019-03-29T23:14:21.814Z,54.93
2019-03-29T23:16:49.630Z,54.92
2019-03-29T23:19:17.413Z,55.02
2019-03-29T23:21:45.320Z,55.04
2019-03-29T23:24:13.118Z,55.06
2019-03-29T23:26:40.913Z,55.02
2019-03-29T23:29:08.730Z,55.04
2019-03-29T23:31:36.549Z,55.01
2019-03-29T23:34:04.343Z,55.05
2019-03-29T23:36:32.137Z,55.13
2019-03-29T23:38:59.946Z,55.15
2019-03-29T23:41:27.756Z,55.13
2019-03-29T23:43:55.542Z,55.13
2019-03-29T23:46:23.490Z,55.20
2019-03-29T23:48:51.299Z,55.24
2019-03-29T23:51:19.122Z,55.25
2019-03-29T23:53:47.172Z,55.28
2019-03-29T23:56:15.030Z,55.27
2019-03-29T23:58:42.883Z,55.26
